sensor_id;sensor_type;location;lat;lon;timestamp;temperature;humidity
37956;DHT22;23776;51.592;7.180;2022-09-24T00:01:06;13.80;16.60
37956;DHT22;23776;51.592;7.180;2022-09-24T00:03:31;13.80;14.00
37956;DHT22;23776;51.592;7.180;2022-09-24T00:06:01;13.80;12.70
37956;DHT22;23776;51.592;7.180;2022-09-24T00:08:27;13.80;12.00
37956;DHT22;23776;51.592;7.180;2022-09-24T00:10:53;13.90;10.80
37956;DHT22;23776;51.592;7.180;2022-09-24T00:13:21;13.90;14.00
37956;DHT22;23776;51.592;7.180;2022-09-24T00:15:49;13.90;15.20
37956;DHT22;23776;51.592;7.180;2022-09-24T00:18:16;14.00;22.30
37956;DHT22;23776;51.592;7.180;2022-09-24T00:20:43;14.00;23.50
37956;DHT22;23776;51.592;7.180;2022-09-24T00:23:10;14.00;23.00
37956;DHT22;23776;51.592;7.180;2022-09-24T00:25:45;14.00;22.90
37956;DHT22;23776;51.592;7.180;2022-09-24T00:28:30;14.00;20.40
37956;DHT22;23776;51.592;7.180;2022-09-24T00:30:58;13.90;18.80
37956;DHT22;23776;51.592;7.180;2022-09-24T00:33:25;13.90;14.90
37956;DHT22;23776;51.592;7.180;2022-09-24T00:35:57;13.90;15.30
37956;DHT22;23776;51.592;7.180;2022-09-24T00:38:23;13.90;16.90
37956;DHT22;23776;51.592;7.180;2022-09-24T00:40:49;13.90;19.20
37956;DHT22;23776;51.592;7.180;2022-09-24T00:45:54;14.00;23.30
37956;DHT22;23776;51.592;7.180;2022-09-24T00:48:21;13.90;24.70
37956;DHT22;23776;51.592;7.180;2022-09-24T00:50:47;13.90;26.40
37956;DHT22;23776;51.592;7.180;2022-09-24T00:53:16;13.80;27.60
37956;DHT22;23776;51.592;7.180;2022-09-24T00:55:44;13.70;28.00
37956;DHT22;23776;51.592;7.180;2022-09-24T00:58:13;13.60;29.70
37956;DHT22;23776;51.592;7.180;2022-09-24T01:00:40;13.70;33.50
37956;DHT22;23776;51.592;7.180;2022-09-24T01:03:21;13.60;35.50
37956;DHT22;23776;51.592;7.180;2022-09-24T01:05:48;13.60;40.50
37956;DHT22;23776;51.592;7.180;2022-09-24T01:08:15;13.60;42.70
37956;DHT22;23776;51.592;7.180;2022-09-24T01:10:57;13.50;44.20
37956;DHT22;23776;51.592;7.180;2022-09-24T01:19:17;13.50;50.40
37956;DHT22;23776;51.592;7.180;2022-09-24T01:21:51;13.50;53.00
37956;DHT22;23776;51.592;7.180;2022-09-24T01:27:59;13.60;58.80
37956;DHT22;23776;51.592;7.180;2022-09-24T01:30:07;14.10;58.00
37956;DHT22;23776;51.592;7.180;2022-09-24T01:32:54;13.50;57.20
37956;DHT22;23776;51.592;7.180;2022-09-24T01:38:01;13.50;59.80
37956;DHT22;23776;51.592;7.180;2022-09-24T01:40:31;13.50;60.30
37956;DHT22;23776;51.592;7.180;2022-09-24T01:42:58;13.50;60.00
37956;DHT22;23776;51.592;7.180;2022-09-24T01:45:25;13.40;59.90
37956;DHT22;23776;51.592;7.180;2022-09-24T01:47:59;13.40;60.30
37956;DHT22;23776;51.592;7.180;2022-09-24T01:50:27;13.40;61.00
37956;DHT22;23776;51.592;7.180;2022-09-24T01:53:02;13.30;60.50
37956;DHT22;23776;51.592;7.180;2022-09-24T01:55:34;13.30;60.50
37956;DHT22;23776;51.592;7.180;2022-09-24T01:58:17;13.40;63.60
37956;DHT22;23776;51.592;7.180;2022-09-24T02:00:46;13.40;63.80
37956;DHT22;23776;51.592;7.180;2022-09-24T02:03:16;13.40;63.80
37956;DHT22;23776;51.592;7.180;2022-09-24T02:05:50;13.50;65.40
37956;DHT22;23776;51.592;7.180;2022-09-24T02:08:32;13.50;65.50
37956;DHT22;23776;51.592;7.180;2022-09-24T02:11:14;13.50;66.20
37956;DHT22;23776;51.592;7.180;2022-09-24T02:13:50;13.50;66.60
37956;DHT22;23776;51.592;7.180;2022-09-24T02:16:21;13.50;66.60
37956;DHT22;23776;51.592;7.180;2022-09-24T02:18:51;13.60;67.40
37956;DHT22;23776;51.592;7.180;2022-09-24T02:21:20;13.60;68.20
37956;DHT22;23776;51.592;7.180;2022-09-24T02:23:53;13.60;67.70
37956;DHT22;23776;51.592;7.180;2022-09-24T02:26:20;13.50;68.30
37956;DHT22;23776;51.592;7.180;2022-09-24T02:28:46;13.50;69.10
37956;DHT22;23776;51.592;7.180;2022-09-24T02:31:16;13.50;69.30
37956;DHT22;23776;51.592;7.180;2022-09-24T02:33:46;13.50;69.60
37956;DHT22;23776;51.592;7.180;2022-09-24T02:36:32;13.60;69.90
37956;DHT22;23776;51.592;7.180;2022-09-24T02:38:58;13.60;69.30
37956;DHT22;23776;51.592;7.180;2022-09-24T02:41:25;13.60;69.00
37956;DHT22;23776;51.592;7.180;2022-09-24T02:43:51;13.60;70.00
37956;DHT22;23776;51.592;7.180;2022-09-24T02:46:17;13.60;69.40
37956;DHT22;23776;51.592;7.180;2022-09-24T02:48:43;13.60;71.00
37956;DHT22;23776;51.592;7.180;2022-09-24T02:51:08;13.50;70.60
37956;DHT22;23776;51.592;7.180;2022-09-24T02:53:34;13.60;70.10
37956;DHT22;23776;51.592;7.180;2022-09-24T02:56:02;13.60;70.40
37956;DHT22;23776;51.592;7.180;2022-09-24T02:58:28;13.50;70.70
37956;DHT22;23776;51.592;7.180;2022-09-24T03:00:55;13.50;71.70
37956;DHT22;23776;51.592;7.180;2022-09-24T03:03:22;13.60;70.80
37956;DHT22;23776;51.592;7.180;2022-09-24T03:05:49;13.50;70.70
37956;DHT22;23776;51.592;7.180;2022-09-24T03:08:18;13.50;71.10
37956;DHT22;23776;51.592;7.180;2022-09-24T03:10:44;13.60;71.10
37956;DHT22;23776;51.592;7.180;2022-09-24T03:13:10;13.60;69.80
37956;DHT22;23776;51.592;7.180;2022-09-24T03:15:35;13.50;70.70
37956;DHT22;23776;51.592;7.180;2022-09-24T03:18:02;13.50;70.80
37956;DHT22;23776;51.592;7.180;2022-09-24T03:20:28;13.60;70.20
37956;DHT22;23776;51.592;7.180;2022-09-24T03:22:54;13.50;70.10
37956;DHT22;23776;51.592;7.180;2022-09-24T03:25:19;13.50;71.20
37956;DHT22;23776;51.592;7.180;2022-09-24T03:27:45;13.50;72.70
37956;DHT22;23776;51.592;7.180;2022-09-24T03:30:12;13.50;72.40
37956;DHT22;23776;51.592;7.180;2022-09-24T03:32:57;13.50;72.60
37956;DHT22;23776;51.592;7.180;2022-09-24T03:35:24;13.50;72.70
37956;DHT22;23776;51.592;7.180;2022-09-24T03:37:49;13.50;73.10
37956;DHT22;23776;51.592;7.180;2022-09-24T03:40:15;13.50;74.40
37956;DHT22;23776;51.592;7.180;2022-09-24T03:42:41;13.50;73.90
37956;DHT22;23776;51.592;7.180;2022-09-24T03:45:07;13.40;73.40
37956;DHT22;23776;51.592;7.180;2022-09-24T03:47:34;13.50;72.80
37956;DHT22;23776;51.592;7.180;2022-09-24T03:50:00;13.40;73.20
37956;DHT22;23776;51.592;7.180;2022-09-24T03:52:27;13.40;73.10
37956;DHT22;23776;51.592;7.180;2022-09-24T03:54:52;13.50;73.00
37956;DHT22;23776;51.592;7.180;2022-09-24T03:57:18;13.50;73.40
37956;DHT22;23776;51.592;7.180;2022-09-24T03:59:44;13.40;73.30
37956;DHT22;23776;51.592;7.180;2022-09-24T04:02:10;13.40;73.50
37956;DHT22;23776;51.592;7.180;2022-09-24T04:04:36;13.40;73.50
37956;DHT22;23776;51.592;7.180;2022-09-24T04:07:03;13.40;73.40
37956;DHT22;23776;51.592;7.180;2022-09-24T04:09:28;13.40;73.90
37956;DHT22;23776;51.592;7.180;2022-09-24T04:11:54;13.40;74.20
37956;DHT22;23776;51.592;7.180;2022-09-24T04:14:20;13.50;73.60
37956;DHT22;23776;51.592;7.180;2022-09-24T04:16:46;13.50;73.20
37956;DHT22;23776;51.592;7.180;2022-09-24T04:19:12;13.40;73.60
37956;DHT22;23776;51.592;7.180;2022-09-24T04:21:41;13.50;73.70
37956;DHT22;23776;51.592;7.180;2022-09-24T04:24:07;13.50;73.20
37956;DHT22;23776;51.592;7.180;2022-09-24T04:26:33;13.50;73.20
37956;DHT22;23776;51.592;7.180;2022-09-24T04:28:58;13.50;72.60
37956;DHT22;23776;51.592;7.180;2022-09-24T04:31:24;13.50;72.40
37956;DHT22;23776;51.592;7.180;2022-09-24T04:33:52;13.50;72.90
37956;DHT22;23776;51.592;7.180;2022-09-24T04:36:18;13.40;72.40
37956;DHT22;23776;51.592;7.180;2022-09-24T04:38:43;13.40;73.10
37956;DHT22;23776;51.592;7.180;2022-09-24T04:41:12;13.40;72.80
37956;DHT22;23776;51.592;7.180;2022-09-24T04:43:40;13.50;72.90
37956;DHT22;23776;51.592;7.180;2022-09-24T04:46:05;13.40;72.10
37956;DHT22;23776;51.592;7.180;2022-09-24T04:48:33;13.40;73.20
37956;DHT22;23776;51.592;7.180;2022-09-24T04:51:01;13.40;72.60
37956;DHT22;23776;51.592;7.180;2022-09-24T04:53:27;13.40;72.60
37956;DHT22;23776;51.592;7.180;2022-09-24T04:55:53;13.40;73.00
37956;DHT22;23776;51.592;7.180;2022-09-24T04:58:19;13.40;73.40
37956;DHT22;23776;51.592;7.180;2022-09-24T05:00:44;13.40;73.70
37956;DHT22;23776;51.592;7.180;2022-09-24T05:03:10;13.40;73.00
37956;DHT22;23776;51.592;7.180;2022-09-24T05:05:35;13.40;72.60
37956;DHT22;23776;51.592;7.180;2022-09-24T05:08:01;13.40;72.90
37956;DHT22;23776;51.592;7.180;2022-09-24T05:10:28;13.30;73.10
37956;DHT22;23776;51.592;7.180;2022-09-24T05:12:54;13.40;74.00
37956;DHT22;23776;51.592;7.180;2022-09-24T05:15:20;13.40;73.70
37956;DHT22;23776;51.592;7.180;2022-09-24T05:17:49;13.30;74.00
37956;DHT22;23776;51.592;7.180;2022-09-24T05:20:14;13.30;74.10
37956;DHT22;23776;51.592;7.180;2022-09-24T05:22:45;13.30;74.60
37956;DHT22;23776;51.592;7.180;2022-09-24T05:25:13;13.30;74.00
37956;DHT22;23776;51.592;7.180;2022-09-24T05:27:50;13.20;74.10
37956;DHT22;23776;51.592;7.180;2022-09-24T05:30:17;13.20;73.20
37956;DHT22;23776;51.592;7.180;2022-09-24T05:32:43;13.20;73.90
37956;DHT22;23776;51.592;7.180;2022-09-24T05:35:09;13.20;74.10
37956;DHT22;23776;51.592;7.180;2022-09-24T05:37:36;13.20;74.30
37956;DHT22;23776;51.592;7.180;2022-09-24T05:40:04;13.20;73.60
37956;DHT22;23776;51.592;7.180;2022-09-24T05:42:49;13.20;74.30
37956;DHT22;23776;51.592;7.180;2022-09-24T05:45:16;13.20;74.10
37956;DHT22;23776;51.592;7.180;2022-09-24T05:47:43;13.20;73.80
37956;DHT22;23776;51.592;7.180;2022-09-24T05:50:12;13.10;75.10
37956;DHT22;23776;51.592;7.180;2022-09-24T05:52:39;13.20;75.00
37956;DHT22;23776;51.592;7.180;2022-09-24T05:55:06;13.20;73.30
37956;DHT22;23776;51.592;7.180;2022-09-24T05:57:32;13.20;72.60
37956;DHT22;23776;51.592;7.180;2022-09-24T05:59:58;13.30;72.70
37956;DHT22;23776;51.592;7.180;2022-09-24T06:02:24;13.30;72.50
37956;DHT22;23776;51.592;7.180;2022-09-24T06:04:49;13.30;71.90
37956;DHT22;23776;51.592;7.180;2022-09-24T06:07:15;13.40;71.70
37956;DHT22;23776;51.592;7.180;2022-09-24T06:09:41;13.40;71.60
37956;DHT22;23776;51.592;7.180;2022-09-24T06:12:07;13.40;71.50
37956;DHT22;23776;51.592;7.180;2022-09-24T06:14:35;13.40;71.10
37956;DHT22;23776;51.592;7.180;2022-09-24T06:17:00;13.40;71.40
37956;DHT22;23776;51.592;7.180;2022-09-24T06:19:26;13.50;72.10
37956;DHT22;23776;51.592;7.180;2022-09-24T06:21:52;13.40;72.70
37956;DHT22;23776;51.592;7.180;2022-09-24T06:24:17;13.40;72.70
37956;DHT22;23776;51.592;7.180;2022-09-24T06:26:43;13.50;73.00
37956;DHT22;23776;51.592;7.180;2022-09-24T06:29:08;13.50;72.50
37956;DHT22;23776;51.592;7.180;2022-09-24T06:31:35;13.50;72.30
37956;DHT22;23776;51.592;7.180;2022-09-24T06:34:00;13.50;71.60
37956;DHT22;23776;51.592;7.180;2022-09-24T06:36:27;13.60;72.20
37956;DHT22;23776;51.592;7.180;2022-09-24T06:38:55;13.60;71.80
37956;DHT22;23776;51.592;7.180;2022-09-24T06:41:23;13.70;71.20
37956;DHT22;23776;51.592;7.180;2022-09-24T06:43:48;13.70;70.70
37956;DHT22;23776;51.592;7.180;2022-09-24T06:46:14;13.70;69.70
37956;DHT22;23776;51.592;7.180;2022-09-24T06:48:40;13.80;67.50
37956;DHT22;23776;51.592;7.180;2022-09-24T06:51:06;13.90;66.90
37956;DHT22;23776;51.592;7.180;2022-09-24T06:53:32;13.90;66.40
37956;DHT22;23776;51.592;7.180;2022-09-24T06:55:57;13.90;66.50
37956;DHT22;23776;51.592;7.180;2022-09-24T06:58:24;14.00;65.40
37956;DHT22;23776;51.592;7.180;2022-09-24T07:00:57;14.00;65.10
37956;DHT22;23776;51.592;7.180;2022-09-24T07:03:23;14.10;63.50
37956;DHT22;23776;51.592;7.180;2022-09-24T07:05:49;14.10;61.50
37956;DHT22;23776;51.592;7.180;2022-09-24T07:08:16;14.10;61.50
37956;DHT22;23776;51.592;7.180;2022-09-24T07:10:46;14.20;60.40
37956;DHT22;23776;51.592;7.180;2022-09-24T07:13:14;14.20;60.60
37956;DHT22;23776;51.592;7.180;2022-09-24T07:15:41;14.20;57.60
37956;DHT22;23776;51.592;7.180;2022-09-24T07:18:08;14.30;53.30
37956;DHT22;23776;51.592;7.180;2022-09-24T07:20:34;14.40;50.10
37956;DHT22;23776;51.592;7.180;2022-09-24T07:23:02;14.50;48.60
37956;DHT22;23776;51.592;7.180;2022-09-24T07:25:28;14.50;45.70
37956;DHT22;23776;51.592;7.180;2022-09-24T07:27:54;14.60;43.20
37956;DHT22;23776;51.592;7.180;2022-09-24T07:30:20;14.70;41.10
37956;DHT22;23776;51.592;7.180;2022-09-24T07:32:46;14.80;38.60
37956;DHT22;23776;51.592;7.180;2022-09-24T07:35:13;14.90;38.20
37956;DHT22;23776;51.592;7.180;2022-09-24T07:37:39;14.90;36.20
37956;DHT22;23776;51.592;7.180;2022-09-24T07:40:05;14.90;34.70
37956;DHT22;23776;51.592;7.180;2022-09-24T07:42:31;15.10;33.10
37956;DHT22;23776;51.592;7.180;2022-09-24T07:44:56;15.10;31.30
37956;DHT22;23776;51.592;7.180;2022-09-24T07:47:23;15.10;30.60
37956;DHT22;23776;51.592;7.180;2022-09-24T07:49:49;15.30;26.70
37956;DHT22;23776;51.592;7.180;2022-09-24T07:52:14;15.30;26.60
37956;DHT22;23776;51.592;7.180;2022-09-24T07:54:40;15.40;26.40
37956;DHT22;23776;51.592;7.180;2022-09-24T07:57:10;15.30;22.20
37956;DHT22;23776;51.592;7.180;2022-09-24T07:59:40;15.40;20.60
37956;DHT22;23776;51.592;7.180;2022-09-24T08:02:15;15.50;18.70
37956;DHT22;23776;51.592;7.180;2022-09-24T08:04:41;15.40;12.10
37956;DHT22;23776;51.592;7.180;2022-09-24T08:07:07;15.40;13.80
37956;DHT22;23776;51.592;7.180;2022-09-24T08:09:34;15.50;1.00
37956;DHT22;23776;51.592;7.180;2022-09-24T08:12:00;15.60;1.00
37956;DHT22;23776;51.592;7.180;2022-09-24T08:14:25;15.60;1.00
37956;DHT22;23776;51.592;7.180;2022-09-24T08:16:51;15.70;1.00
37956;DHT22;23776;51.592;7.180;2022-09-24T08:19:16;15.80;1.00
37956;DHT22;23776;51.592;7.180;2022-09-24T08:21:42;15.90;1.00
37956;DHT22;23776;51.592;7.180;2022-09-24T08:24:08;15.80;1.00
37956;DHT22;23776;51.592;7.180;2022-09-24T08:26:33;15.90;1.00
37956;DHT22;23776;51.592;7.180;2022-09-24T08:28:59;16.00;1.00
37956;DHT22;23776;51.592;7.180;2022-09-24T08:31:25;16.10;1.00
37956;DHT22;23776;51.592;7.180;2022-09-24T08:33:51;16.20;1.00
37956;DHT22;23776;51.592;7.180;2022-09-24T08:36:17;16.30;1.00
37956;DHT22;23776;51.592;7.180;2022-09-24T08:38:43;16.30;1.00
37956;DHT22;23776;51.592;7.180;2022-09-24T08:46:23;16.50;1.00
37956;DHT22;23776;51.592;7.180;2022-09-24T08:49:15;16.50;99.90
37956;DHT22;23776;51.592;7.180;2022-09-24T08:54:53;16.70;1.00
37956;DHT22;23776;51.592;7.180;2022-09-24T08:57:21;16.80;1.00
37956;DHT22;23776;51.592;7.180;2022-09-24T08:59:51;16.90;99.90
37956;DHT22;23776;51.592;7.180;2022-09-24T09:02:39;16.90;99.90
37956;DHT22;23776;51.592;7.180;2022-09-24T09:08:12;17.00;99.90
37956;DHT22;23776;51.592;7.180;2022-09-24T09:10:39;17.10;1.00
37956;DHT22;23776;51.592;7.180;2022-09-24T09:13:19;17.20;21.00
37956;DHT22;23776;51.592;7.180;2022-09-24T09:15:50;17.20;1.00
37956;DHT22;23776;51.592;7.180;2022-09-24T09:18:25;17.20;99.90
37956;DHT22;23776;51.592;7.180;2022-09-24T09:20:55;17.20;99.90
37956;DHT22;23776;51.592;7.180;2022-09-24T09:23:33;17.30;99.90
37956;DHT22;23776;51.592;7.180;2022-09-24T09:26:01;17.30;53.00
37956;DHT22;23776;51.592;7.180;2022-09-24T09:28:27;17.40;99.90
37956;DHT22;23776;51.592;7.180;2022-09-24T09:31:23;17.50;99.90
37956;DHT22;23776;51.592;7.180;2022-09-24T09:44:38;17.40;1.00
37956;DHT22;23776;51.592;7.180;2022-09-24T09:53:03;17.10;99.90
37956;DHT22;23776;51.592;7.180;2022-09-24T09:55:33;17.20;99.90
37956;DHT22;23776;51.592;7.180;2022-09-24T09:58:29;17.40;1.00
37956;DHT22;23776;51.592;7.180;2022-09-24T10:01:14;17.50;99.90
37956;DHT22;23776;51.592;7.180;2022-09-24T10:03:46;17.70;1.00
37956;DHT22;23776;51.592;7.180;2022-09-24T10:06:34;17.80;1.00
37956;DHT22;23776;51.592;7.180;2022-09-24T10:09:17;17.90;24.70
37956;DHT22;23776;51.592;7.180;2022-09-24T10:11:47;18.00;99.90
37956;DHT22;23776;51.592;7.180;2022-09-24T10:14:15;17.90;1.00
37956;DHT22;23776;51.592;7.180;2022-09-24T10:16:49;17.60;1.00
37956;DHT22;23776;51.592;7.180;2022-09-24T10:19:21;17.60;99.90
37956;DHT22;23776;51.592;7.180;2022-09-24T10:21:48;17.60;99.90
37956;DHT22;23776;51.592;7.180;2022-09-24T10:24:19;17.70;99.90
37956;DHT22;23776;51.592;7.180;2022-09-24T10:26:46;17.70;90.80
37956;DHT22;23776;51.592;7.180;2022-09-24T10:29:25;17.80;99.90
37956;DHT22;23776;51.592;7.180;2022-09-24T10:32:16;17.70;1.00
37956;DHT22;23776;51.592;7.180;2022-09-24T10:34:57;17.60;15.10
37956;DHT22;23776;51.592;7.180;2022-09-24T10:37:24;17.60;99.90
37956;DHT22;23776;51.592;7.180;2022-09-24T10:40:11;17.60;1.00
37956;DHT22;23776;51.592;7.180;2022-09-24T10:42:37;18.00;1.00
37956;DHT22;23776;51.592;7.180;2022-09-24T10:45:09;18.20;1.00
37956;DHT22;23776;51.592;7.180;2022-09-24T10:48:03;18.30;99.90
37956;DHT22;23776;51.592;7.180;2022-09-24T10:50:48;18.30;99.90
37956;DHT22;23776;51.592;7.180;2022-09-24T10:53:47;16.90;99.90
37956;DHT22;23776;51.592;7.180;2022-09-24T10:56:25;18.40;99.90
37956;DHT22;23776;51.592;7.180;2022-09-24T11:04:48;17.80;1.00
37956;DHT22;23776;51.592;7.180;2022-09-24T11:10:16;17.70;99.90
37956;DHT22;23776;51.592;7.180;2022-09-24T11:15:47;17.70;99.90
37956;DHT22;23776;51.592;7.180;2022-09-24T11:24:04;17.50;1.00
37956;DHT22;23776;51.592;7.180;2022-09-24T11:29:40;17.00;99.90
37956;DHT22;23776;51.592;7.180;2022-09-24T11:32:30;16.90;99.90
37956;DHT22;23776;51.592;7.180;2022-09-24T11:40:37;16.20;99.90
37956;DHT22;23776;51.592;7.180;2022-09-24T11:46:15;15.70;1.00
37956;DHT22;23776;51.592;7.180;2022-09-24T11:52:12;15.60;1.00
37956;DHT22;23776;51.592;7.180;2022-09-24T11:55:04;15.50;1.00
37956;DHT22;23776;51.592;7.180;2022-09-24T11:57:47;15.50;1.00
37956;DHT22;23776;51.592;7.180;2022-09-24T12:00:16;15.60;1.00
37956;DHT22;23776;51.592;7.180;2022-09-24T12:02:57;15.80;1.00
37956;DHT22;23776;51.592;7.180;2022-09-24T12:05:37;16.00;1.00
37956;DHT22;23776;51.592;7.180;2022-09-24T12:08:25;16.40;1.00
37956;DHT22;23776;51.592;7.180;2022-09-24T12:11:05;16.90;1.00
37956;DHT22;23776;51.592;7.180;2022-09-24T12:13:51;17.30;1.00
37956;DHT22;23776;51.592;7.180;2022-09-24T12:16:26;17.50;1.00
37956;DHT22;23776;51.592;7.180;2022-09-24T12:19:15;17.60;1.00
37956;DHT22;23776;51.592;7.180;2022-09-24T12:21:45;17.70;1.00
37956;DHT22;23776;51.592;7.180;2022-09-24T12:24:28;17.80;1.00
37956;DHT22;23776;51.592;7.180;2022-09-24T12:26:56;17.70;1.00
37956;DHT22;23776;51.592;7.180;2022-09-24T12:29:38;17.50;99.90
37956;DHT22;23776;51.592;7.180;2022-09-24T12:35:24;17.50;1.00
37956;DHT22;23776;51.592;7.180;2022-09-24T12:37:58;17.50;1.00
37956;DHT22;23776;51.592;7.180;2022-09-24T12:43:35;17.60;1.00
37956;DHT22;23776;51.592;7.180;2022-09-24T12:46:04;17.70;99.90
37956;DHT22;23776;51.592;7.180;2022-09-24T12:48:36;17.80;99.90
37956;DHT22;23776;51.592;7.180;2022-09-24T12:51:06;17.90;99.90
37956;DHT22;23776;51.592;7.180;2022-09-24T12:53:40;18.10;99.90
37956;DHT22;23776;51.592;7.180;2022-09-24T12:56:06;18.10;99.90
37956;DHT22;23776;51.592;7.180;2022-09-24T12:58:43;18.10;99.90
37956;DHT22;23776;51.592;7.180;2022-09-24T13:01:29;18.20;99.90
37956;DHT22;23776;51.592;7.180;2022-09-24T13:06:41;18.20;99.90
37956;DHT22;23776;51.592;7.180;2022-09-24T13:09:33;18.00;99.90
37956;DHT22;23776;51.592;7.180;2022-09-24T13:12:18;17.90;99.90
37956;DHT22;23776;51.592;7.180;2022-09-24T13:17:14;17.70;99.90
37956;DHT22;23776;51.592;7.180;2022-09-24T13:19:44;17.70;99.90
37956;DHT22;23776;51.592;7.180;2022-09-24T13:22:37;17.90;99.90
37956;DHT22;23776;51.592;7.180;2022-09-24T13:27:36;17.90;99.90
37956;DHT22;23776;51.592;7.180;2022-09-24T13:33:00;17.90;1.00
37956;DHT22;23776;51.592;7.180;2022-09-24T13:35:31;18.00;1.00
37956;DHT22;23776;51.592;7.180;2022-09-24T13:38:12;18.10;1.00
37956;DHT22;23776;51.592;7.180;2022-09-24T13:40:47;18.20;1.00
37956;DHT22;23776;51.592;7.180;2022-09-24T13:43:18;18.20;1.00
37956;DHT22;23776;51.592;7.180;2022-09-24T13:45:50;18.30;1.00
37956;DHT22;23776;51.592;7.180;2022-09-24T13:48:37;18.40;99.90
37956;DHT22;23776;51.592;7.180;2022-09-24T13:51:10;18.40;1.00
37956;DHT22;23776;51.592;7.180;2022-09-24T13:53:51;18.40;96.10
37956;DHT22;23776;51.592;7.180;2022-09-24T13:56:19;18.40;99.90
37956;DHT22;23776;51.592;7.180;2022-09-24T13:58:46;18.40;99.90
37956;DHT22;23776;51.592;7.180;2022-09-24T14:01:18;18.40;99.90
37956;DHT22;23776;51.592;7.180;2022-09-24T14:03:57;18.30;1.00
37956;DHT22;23776;51.592;7.180;2022-09-24T14:06:39;18.20;96.80
37956;DHT22;23776;51.592;7.180;2022-09-24T14:09:28;18.20;1.00
37956;DHT22;23776;51.592;7.180;2022-09-24T14:11:57;18.20;82.50
37956;DHT22;23776;51.592;7.180;2022-09-24T14:14:25;18.10;99.90
37956;DHT22;23776;51.592;7.180;2022-09-24T14:16:52;18.10;99.90
37956;DHT22;23776;51.592;7.180;2022-09-24T14:19:20;18.10;1.00
37956;DHT22;23776;51.592;7.180;2022-09-24T14:21:50;18.00;30.10
37956;DHT22;23776;51.592;7.180;2022-09-24T14:24:24;18.00;99.90
37956;DHT22;23776;51.592;7.180;2022-09-24T14:27:13;18.00;1.00
37956;DHT22;23776;51.592;7.180;2022-09-24T14:30:02;17.90;19.70
37956;DHT22;23776;51.592;7.180;2022-09-24T14:32:38;17.90;99.90
37956;DHT22;23776;51.592;7.180;2022-09-24T14:35:20;17.80;99.90
37956;DHT22;23776;51.592;7.180;2022-09-24T14:37:53;17.80;1.00
37956;DHT22;23776;51.592;7.180;2022-09-24T14:40:22;17.70;1.00
37956;DHT22;23776;51.592;7.180;2022-09-24T14:42:59;17.70;1.00
37956;DHT22;23776;51.592;7.180;2022-09-24T14:45:35;17.70;99.90
37956;DHT22;23776;51.592;7.180;2022-09-24T14:50:41;17.50;99.90
37956;DHT22;23776;51.592;7.180;2022-09-24T14:53:22;17.40;99.90
37956;DHT22;23776;51.592;7.180;2022-09-24T14:55:49;17.30;1.00
37956;DHT22;23776;51.592;7.180;2022-09-24T14:58:41;17.40;99.90
37956;DHT22;23776;51.592;7.180;2022-09-24T15:01:14;17.20;99.90
37956;DHT22;23776;51.592;7.180;2022-09-24T15:03:43;17.30;99.90
37956;DHT22;23776;51.592;7.180;2022-09-24T15:06:31;17.30;99.90
37956;DHT22;23776;51.592;7.180;2022-09-24T15:11:40;17.10;99.90
37956;DHT22;23776;51.592;7.180;2022-09-24T15:16:42;17.10;99.90
37956;DHT22;23776;51.592;7.180;2022-09-24T15:19:24;17.10;99.90
37956;DHT22;23776;51.592;7.180;2022-09-24T15:21:56;17.00;99.90
37956;DHT22;23776;51.592;7.180;2022-09-24T15:24:23;17.10;99.90
37956;DHT22;23776;51.592;7.180;2022-09-24T15:27:05;17.10;1.00
37956;DHT22;23776;51.592;7.180;2022-09-24T15:29:31;17.10;99.90
37956;DHT22;23776;51.592;7.180;2022-09-24T15:31:57;17.10;99.90
37956;DHT22;23776;51.592;7.180;2022-09-24T15:34:23;17.10;99.90
37956;DHT22;23776;51.592;7.180;2022-09-24T15:36:53;17.10;99.90
37956;DHT22;23776;51.592;7.180;2022-09-24T15:39:19;17.10;99.90
37956;DHT22;23776;51.592;7.180;2022-09-24T15:41:45;17.10;99.90
37956;DHT22;23776;51.592;7.180;2022-09-24T15:44:19;17.10;99.90
37956;DHT22;23776;51.592;7.180;2022-09-24T15:46:46;17.10;99.90
37956;DHT22;23776;51.592;7.180;2022-09-24T15:49:12;17.20;99.90
37956;DHT22;23776;51.592;7.180;2022-09-24T15:51:38;17.20;99.90
37956;DHT22;23776;51.592;7.180;2022-09-24T15:54:05;17.20;99.90
37956;DHT22;23776;51.592;7.180;2022-09-24T15:56:32;17.10;99.90
37956;DHT22;23776;51.592;7.180;2022-09-24T15:59:00;17.20;99.90
37956;DHT22;23776;51.592;7.180;2022-09-24T16:01:26;17.20;99.90
37956;DHT22;23776;51.592;7.180;2022-09-24T16:03:52;17.20;99.90
37956;DHT22;23776;51.592;7.180;2022-09-24T16:06:18;17.10;99.90
37956;DHT22;23776;51.592;7.180;2022-09-24T16:08:46;17.10;99.90
37956;DHT22;23776;51.592;7.180;2022-09-24T16:11:12;17.10;99.90
37956;DHT22;23776;51.592;7.180;2022-09-24T16:13:38;17.00;99.90
37956;DHT22;23776;51.592;7.180;2022-09-24T16:16:05;17.00;99.90
37956;DHT22;23776;51.592;7.180;2022-09-24T16:18:31;17.00;99.90
37956;DHT22;23776;51.592;7.180;2022-09-24T16:20:57;17.00;99.90
37956;DHT22;23776;51.592;7.180;2022-09-24T16:23:23;16.90;99.90
37956;DHT22;23776;51.592;7.180;2022-09-24T16:25:57;16.80;99.90
37956;DHT22;23776;51.592;7.180;2022-09-24T16:28:24;16.70;99.90
37956;DHT22;23776;51.592;7.180;2022-09-24T16:30:50;16.60;99.90
37956;DHT22;23776;51.592;7.180;2022-09-24T16:33:15;16.60;99.90
37956;DHT22;23776;51.592;7.180;2022-09-24T16:35:41;16.60;99.90
37956;DHT22;23776;51.592;7.180;2022-09-24T16:38:07;16.60;99.90
37956;DHT22;23776;51.592;7.180;2022-09-24T16:40:33;16.70;1.00
37956;DHT22;23776;51.592;7.180;2022-09-24T16:42:58;16.50;1.00
37956;DHT22;23776;51.592;7.180;2022-09-24T16:45:24;16.50;99.90
37956;DHT22;23776;51.592;7.180;2022-09-24T16:47:50;16.40;1.00
37956;DHT22;23776;51.592;7.180;2022-09-24T16:50:17;16.40;1.00
37956;DHT22;23776;51.592;7.180;2022-09-24T16:52:45;16.40;1.00
37956;DHT22;23776;51.592;7.180;2022-09-24T16:55:12;16.30;1.00
37956;DHT22;23776;51.592;7.180;2022-09-24T16:57:38;16.30;1.00
37956;DHT22;23776;51.592;7.180;2022-09-24T17:00:05;16.20;1.00
37956;DHT22;23776;51.592;7.180;2022-09-24T17:02:33;16.20;1.00
37956;DHT22;23776;51.592;7.180;2022-09-24T17:04:58;16.20;1.00
37956;DHT22;23776;51.592;7.180;2022-09-24T17:07:24;16.20;1.00
37956;DHT22;23776;51.592;7.180;2022-09-24T17:09:50;16.10;1.00
37956;DHT22;23776;51.592;7.180;2022-09-24T17:12:34;16.10;1.00
37956;DHT22;23776;51.592;7.180;2022-09-24T17:15:00;16.00;1.00
37956;DHT22;23776;51.592;7.180;2022-09-24T17:17:29;16.00;1.00
37956;DHT22;23776;51.592;7.180;2022-09-24T17:19:54;16.00;1.00
37956;DHT22;23776;51.592;7.180;2022-09-24T17:22:20;15.90;1.00
37956;DHT22;23776;51.592;7.180;2022-09-24T17:24:46;15.90;1.00
37956;DHT22;23776;51.592;7.180;2022-09-24T17:27:13;15.90;1.00
37956;DHT22;23776;51.592;7.180;2022-09-24T17:29:39;15.90;1.00
37956;DHT22;23776;51.592;7.180;2022-09-24T17:32:04;15.90;1.00
37956;DHT22;23776;51.592;7.180;2022-09-24T17:34:30;15.90;1.00